Time;durP1;ratioP1;P1;durP2;ratioP2;P2;SDS_P1;SDS_P2;PMS_P1;PMS_P2;Temp;Humidity;BMP_temperature;BMP_pressure;BME280_temperature;BME280_humidity;BME280_pressure;Samples;Min_cycle;Max_cycle;Signal;HPM_P1;HPM_P2
2021/03/05 00:00:47;;;;;;;;;;;;;;;3.65;97.42;93056.13;1342130;39;20226;31
2021/03/05 00:03:14;;;;;;;;;;;;;;;3.58;98.34;93061.38;1284229;39;20221;31
2021/03/05 00:04:29;;;;;;;;;;;;;;;3.57;97.42;93064.41;1430809;39;20942;31
2021/03/05 00:05:44;;;;;;;;;;;;;;;3.52;98.04;93063.63;1396142;39;21153;31
2021/03/05 00:06:59;;;;;;;;;;;;;;;3.45;97.41;93063.59;1429592;39;20501;31
2021/03/05 00:08:15;;;;;;;;;;;;;;;3.43;96.22;93065.09;1428607;39;20569;31
2021/03/05 00:09:29;;;;;;;;;;;;;;;3.30;97.86;93067.31;1419986;39;20191;31
2021/03/05 00:10:44;;;;;;;;;;;;;;;3.29;99.19;93065.78;1417383;39;22087;31
2021/03/05 00:11:59;;;;;;;;;;;;;;;3.24;99.39;93064.25;1333555;40;20593;31
2021/03/05 00:13:03;;;;;;;;;;;;;;;3.31;98.86;93052.22;1409049;40;20220;31
2021/03/05 00:15:27;;;;;;;;;;;;;;;3.34;98.17;93054.12;1436599;39;20229;31
2021/03/05 00:16:43;;;;;;;;;;;;;;;3.41;97.54;93056.78;1353783;39;20583;31
2021/03/05 00:17:57;;;;;;;;;;;;;;;3.36;97.97;93060.53;1427040;39;20261;31
2021/03/05 00:19:12;;;;;;;;;;;;;;;3.27;97.69;93062.75;1439370;39;20237;31
2021/03/05 00:20:18;;;;;;;;;;;;;;;3.27;97.60;93060.13;1435745;39;20250;31
2021/03/05 00:21:23;;;;;;;;;;;;;;;3.34;98.33;93054.12;1415049;39;21300;31
2021/03/05 00:22:37;;;;;;;;;;;;;;;3.33;98.09;93063.91;1425985;39;21784;31
2021/03/05 00:23:53;;;;;;;;;;;;;;;3.32;98.52;93056.38;1423540;39;20198;31
2021/03/05 00:25:07;;;;;;;;;;;;;;;3.23;98.21;93054.06;1429615;39;20218;31
2021/03/05 00:26:21;;;;;;;;;;;;;;;3.31;98.18;93049.56;1424292;39;20226;31
2021/03/05 00:27:36;;;;;;;;;;;;;;;3.26;98.45;93053.31;1427567;39;20202;31
2021/03/05 00:28:50;;;;;;;;;;;;;;;3.36;98.82;93060.53;1422042;39;20580;31
2021/03/05 00:30:05;;;;;;;;;;;;;;;3.36;98.58;93057.87;1421520;39;21261;31
2021/03/05 00:31:19;;;;;;;;;;;;;;;3.34;98.59;93062.81;1433304;39;20198;31
2021/03/05 00:32:34;;;;;;;;;;;;;;;3.43;98.02;93057.94;1434854;39;21319;31
2021/03/05 00:33:40;;;;;;;;;;;;;;;3.35;98.73;93060.91;1430567;39;20238;31
2021/03/05 00:35:48;;;;;;;;;;;;;;;3.34;99.59;93056.75;1423182;39;20246;31
2021/03/05 00:37:02;;;;;;;;;;;;;;;3.31;99.94;93057.50;1425047;39;20207;31
2021/03/05 00:38:16;;;;;;;;;;;;;;;3.30;100.00;93054.09;1411231;39;20235;31
2021/03/05 00:39:32;;;;;;;;;;;;;;;3.33;100.00;93061.25;1420025;39;20381;31
2021/03/05 00:40:36;;;;;;;;;;;;;;;3.27;100.00;93055.59;1426842;39;20563;31
2021/03/05 00:41:51;;;;;;;;;;;;;;;3.27;100.00;93057.47;1412832;39;21315;31
2021/03/05 00:43:05;;;;;;;;;;;;;;;3.27;100.00;93066.16;1429477;39;20597;31
2021/03/05 00:44:09;;;;;;;;;;;;;;;3.30;100.00;93069.19;1286819;39;20199;31
2021/03/05 00:45:14;;;;;;;;;;;;;;;3.32;100.00;93064.28;1303471;39;20595;31
2021/03/05 00:47:46;;;;;;;;;;;;;;;3.32;100.00;93054.47;1440998;39;20556;31
2021/03/05 00:50:59;;;;;;;;;;;;;;;3.28;100.00;93057.09;1434274;39;20217;31
2021/03/05 00:53:10;;;;;;;;;;;;;;;3.33;100.00;93065.78;1435991;39;20214;31
2021/03/05 00:54:14;;;;;;;;;;;;;;;3.32;100.00;93059.75;1425388;39;20175;31
2021/03/05 00:55:28;;;;;;;;;;;;;;;3.27;100.00;93058.22;1424749;39;20885;31
2021/03/05 00:56:42;;;;;;;;;;;;;;;3.36;99.89;93057.13;1357815;39;20237;31
2021/03/05 00:57:46;;;;;;;;;;;;;;;3.40;100.00;93061.31;1423945;39;20228;31
2021/03/05 00:58:51;;;;;;;;;;;;;;;3.31;100.00;93060.88;1427477;39;20538;31
2021/03/05 01:00:05;;;;;;;;;;;;;;;3.28;100.00;93062.38;1421045;39;20282;31
2021/03/05 01:01:19;;;;;;;;;;;;;;;3.24;100.00;93058.97;1416367;39;20199;31
2021/03/05 01:02:23;;;;;;;;;;;;;;;3.44;100.00;93058.69;1418258;39;20244;31
2021/03/05 01:04:43;;;;;;;;;;;;;;;3.35;97.90;93055.63;1430760;39;20975;31
2021/03/05 01:05:57;;;;;;;;;;;;;;;3.28;99.04;93053.69;1423928;39;21262;31
2021/03/05 01:07:11;;;;;;;;;;;;;;;3.33;100.00;93049.94;1420986;39;20251;31
2021/03/05 01:08:15;;;;;;;;;;;;;;;3.37;99.38;93054.12;1428488;39;22353;31
2021/03/05 01:09:29;;;;;;;;;;;;;;;3.47;98.79;93058.69;1426734;39;20273;31
2021/03/05 01:10:43;;;;;;;;;;;;;;;3.41;98.40;93048.84;1425349;39;21135;31
2021/03/05 01:11:47;;;;;;;;;;;;;;;3.37;99.17;93056.75;1423595;39;20193;31
2021/03/05 01:15:01;;;;;;;;;;;;;;;3.36;100.00;93065.06;1434441;39;20218;31
2021/03/05 01:16:04;;;;;;;;;;;;;;;3.36;100.00;93055.25;1235224;39;20229;31
2021/03/05 01:17:18;;;;;;;;;;;;;;;3.33;99.75;93063.16;1334014;39;20231;31
2021/03/05 01:18:32;;;;;;;;;;;;;;;3.37;100.00;93059.41;1423534;39;20569;31
2021/03/05 01:19:36;;;;;;;;;;;;;;;3.37;100.00;93062.03;1420851;39;20255;31
2021/03/05 01:21:44;;;;;;;;;;;;;;;3.30;100.00;93050.69;1417071;39;20222;31
2021/03/05 01:22:58;;;;;;;;;;;;;;;3.26;100.00;93063.88;1417355;39;21158;31
2021/03/05 01:24:02;;;;;;;;;;;;;;;3.22;100.00;93061.22;1389888;39;20312;31
2021/03/05 01:25:16;;;;;;;;;;;;;;;3.28;100.00;93058.97;1421394;39;21215;31
2021/03/05 01:26:30;;;;;;;;;;;;;;;3.28;100.00;93065.03;1410153;39;21283;31
2021/03/05 01:27:34;;;;;;;;;;;;;;;3.23;100.00;93065.37;1419959;39;20234;31
2021/03/05 01:30:07;;;;;;;;;;;;;;;3.13;100.00;93052.88;1426723;39;20262;31
2021/03/05 01:32:31;;;;;;;;;;;;;;;3.15;100.00;93055.16;1297915;39;20229;31
2021/03/05 01:33:45;;;;;;;;;;;;;;;3.10;100.00;93055.50;1427822;39;20631;31
2021/03/05 01:34:49;;;;;;;;;;;;;;;3.12;100.00;93050.63;1424668;39;22162;31
2021/03/05 01:37:14;;;;;;;;;;;;;;;3.17;100.00;93051.03;1337000;39;21072;31
2021/03/05 01:38:29;;;;;;;;;;;;;;;3.09;100.00;93054.00;1427830;39;21009;31
2021/03/05 01:39:43;;;;;;;;;;;;;;;3.13;100.00;93057.41;1417678;39;20330;31
2021/03/05 01:40:47;;;;;;;;;;;;;;;3.11;100.00;93051.72;1418433;39;21131;31
2021/03/05 01:43:05;;;;;;;;;;;;;;;3.19;100.00;93059.31;1429790;39;21719;31
2021/03/05 01:45:25;;;;;;;;;;;;;;;3.02;100.00;93052.81;1353201;39;20254;31
2021/03/05 01:46:39;;;;;;;;;;;;;;;2.91;100.00;93052.00;1422647;39;20237;31
2021/03/05 01:49:17;;;;;;;;;;;;;;;2.82;100.00;93061.38;1310100;39;21798;31
2021/03/05 01:50:23;;;;;;;;;;;;;;;2.82;100.00;93053.47;1434448;39;20922;31
2021/03/05 01:53:44;;;;;;;;;;;;;;;2.88;100.00;93057.25;1432630;39;20305;31
2021/03/05 01:54:58;;;;;;;;;;;;;;;3.00;100.00;93059.59;1429674;39;20250;31
2021/03/05 01:56:13;;;;;;;;;;;;;;;3.03;100.00;93050.94;1425455;39;20300;31
2021/03/05 01:57:17;;;;;;;;;;;;;;;2.97;100.00;93062.97;1365523;39;20206;31
2021/03/05 01:58:31;;;;;;;;;;;;;;;2.92;100.00;93055.41;1425810;39;21260;31
2021/03/05 01:59:45;;;;;;;;;;;;;;;2.92;100.00;93058.78;1434400;39;20223;31
2021/03/05 02:00:59;;;;;;;;;;;;;;;2.96;100.00;93061.47;1428194;39;20239;31
2021/03/05 02:02:13;;;;;;;;;;;;;;;2.90;100.00;93066.34;1429640;39;20210;31
2021/03/05 02:04:41;;;;;;;;;;;;;;;2.93;100.00;93060.31;1432510;39;20237;31
2021/03/05 02:05:55;;;;;;;;;;;;;;;2.93;100.00;93062.94;1419651;39;20519;31
2021/03/05 02:08:41;;;;;;;;;;;;;;;2.99;100.00;93060.72;1427636;39;20444;31
2021/03/05 02:09:45;;;;;;;;;;;;;;;2.89;100.00;93050.84;1432655;39;20233;31
2021/03/05 02:12:04;;;;;;;;;;;;;;;2.97;100.00;93049.78;1310485;39;20245;31
2021/03/05 02:13:08;;;;;;;;;;;;;;;2.94;100.00;93053.91;1348937;39;20352;31
2021/03/05 02:15:27;;;;;;;;;;;;;;;2.96;100.00;93046.38;1426407;39;20261;31
2021/03/05 02:16:41;;;;;;;;;;;;;;;2.86;100.00;93051.59;1431195;39;20208;31
2021/03/05 02:17:48;;;;;;;;;;;;;;;2.86;100.00;93056.87;1415864;39;22219;31
2021/03/05 02:19:02;;;;;;;;;;;;;;;2.86;100.00;93048.97;1417745;39;20613;31
2021/03/05 02:20:06;;;;;;;;;;;;;;;2.90;100.00;93057.66;1427476;39;21228;31
2021/03/05 02:22:28;;;;;;;;;;;;;;;2.90;100.00;93055.78;1438459;39;20190;31
2021/03/05 02:23:42;;;;;;;;;;;;;;;2.85;100.00;93060.62;1365492;39;20269;31
2021/03/05 02:24:56;;;;;;;;;;;;;;;2.83;100.00;93057.59;1433201;39;20628;31
2021/03/05 02:26:11;;;;;;;;;;;;;;;2.80;100.00;93059.09;1419243;39;20246;31
2021/03/05 02:27:26;;;;;;;;;;;;;;;2.75;100.00;93062.84;1444150;39;20226;31
2021/03/05 02:29:50;;;;;;;;;;;;;;;2.75;100.00;93060.19;1445032;39;20190;31
2021/03/05 02:31:04;;;;;;;;;;;;;;;2.71;100.00;93062.03;1361325;39;20167;31
2021/03/05 02:32:18;;;;;;;;;;;;;;;2.67;100.00;93053.34;1432281;39;20178;31
2021/03/05 02:33:32;;;;;;;;;;;;;;;2.68;100.00;93054.12;1434002;39;20281;31
2021/03/05 02:34:40;;;;;;;;;;;;;;;2.69;100.00;93055.63;1420400;39;20239;31
2021/03/05 02:35:46;;;;;;;;;;;;;;;2.64;100.00;93056.75;1428349;39;20277;31
2021/03/05 02:36:49;;;;;;;;;;;;;;;2.64;100.00;93059.38;1418085;39;20292;31
2021/03/05 02:40:28;;;;;;;;;;;;;;;2.66;100.00;93054.47;1430973;39;20257;31
2021/03/05 02:41:35;;;;;;;;;;;;;;;2.59;100.00;93058.94;1432855;39;20246;31
2021/03/05 02:42:47;;;;;;;;;;;;;;;2.62;100.00;93055.56;1395110;39;22306;31
2021/03/05 02:44:00;;;;;;;;;;;;;;;2.68;100.00;93062.03;1433112;39;20402;31
2021/03/05 02:45:09;;;;;;;;;;;;;;;2.55;100.00;93060.78;1354430;39;20234;31
2021/03/05 02:46:22;;;;;;;;;;;;;;;2.60;100.00;93057.84;1426735;39;21997;31
2021/03/05 02:47:29;;;;;;;;;;;;;;;2.65;100.00;93057.50;1314210;39;20219;31
2021/03/05 02:49:39;;;;;;;;;;;;;;;2.61;100.00;93059.34;1417792;39;20195;31
2021/03/05 02:53:00;;;;;;;;;;;;;;;2.59;100.00;93064.22;1434243;39;21076;31
2021/03/05 02:54:06;;;;;;;;;;;;;;;2.56;100.00;93064.97;1419537;39;20634;31
2021/03/05 02:55:10;;;;;;;;;;;;;;;2.63;100.00;93055.19;1416601;39;20239;31
2021/03/05 02:56:18;;;;;;;;;;;;;;;2.57;100.00;93058.56;1430631;39;21072;31
2021/03/05 02:57:33;;;;;;;;;;;;;;;2.51;100.00;93055.50;1415575;39;20227;31
2021/03/05 02:58:47;;;;;;;;;;;;;;;2.66;100.00;93059.00;1262634;39;20263;31
2021/03/05 02:59:51;;;;;;;;;;;;;;;2.62;100.00;93061.59;1238889;39;20907;31
2021/03/05 03:03:29;;;;;;;;;;;;;;;2.45;100.00;93068.25;1423670;39;20243;31
2021/03/05 03:04:43;;;;;;;;;;;;;;;2.40;100.00;93065.22;1426973;39;20258;31
2021/03/05 03:05:57;;;;;;;;;;;;;;;2.49;100.00;93069.06;1424704;39;20235;31
2021/03/05 03:07:01;;;;;;;;;;;;;;;2.51;100.00;93064.19;1420737;39;20287;31
2021/03/05 03:10:16;;;;;;;;;;;;;;;2.43;100.00;93070.53;1408950;39;20195;31
2021/03/05 03:12:38;;;;;;;;;;;;;;;2.46;100.00;93074.31;1428405;39;21124;31
2021/03/05 03:13:52;;;;;;;;;;;;;;;2.41;100.00;93072.00;1428339;39;20206;31
2021/03/05 03:15:06;;;;;;;;;;;;;;;2.43;100.00;93073.16;1425221;39;20255;31
2021/03/05 03:16:10;;;;;;;;;;;;;;;2.42;100.00;93074.28;1364250;39;20990;31
2021/03/05 03:17:24;;;;;;;;;;;;;;;2.52;100.00;93072.84;1422943;39;20230;31
2021/03/05 03:19:56;;;;;;;;;;;;;;;2.42;100.00;93076.94;1350771;39;21296;31
2021/03/05 03:21:12;;;;;;;;;;;;;;;2.52;100.00;93072.84;1341745;39;20211;31
2021/03/05 03:22:26;;;;;;;;;;;;;;;2.52;100.00;93083.41;1414206;39;20681;31
2021/03/05 03:23:30;;;;;;;;;;;;;;;2.43;100.00;93080.31;1420133;39;20224;31
2021/03/05 03:24:44;;;;;;;;;;;;;;;2.44;100.00;93079.19;1424863;39;21361;31
2021/03/05 03:25:58;;;;;;;;;;;;;;;2.54;100.00;93081.16;1432837;39;21325;31
2021/03/05 03:27:12;;;;;;;;;;;;;;;2.50;100.00;93080.34;1429445;39;20278;31
2021/03/05 03:28:26;;;;;;;;;;;;;;;2.56;100.00;93083.44;1350686;39;21229;31
2021/03/05 03:29:30;;;;;;;;;;;;;;;2.46;100.00;93075.06;1422276;39;20528;31
2021/03/05 03:30:44;;;;;;;;;;;;;;;2.44;100.00;93082.56;1400681;39;21717;31
2021/03/05 03:31:58;;;;;;;;;;;;;;;2.39;100.00;93077.66;1428698;39;21164;31
2021/03/05 03:33:12;;;;;;;;;;;;;;;2.35;100.00;93090.03;1424284;39;20303;31
2021/03/05 03:34:16;;;;;;;;;;;;;;;2.36;100.00;93096.81;1425156;39;21131;31
2021/03/05 03:35:20;;;;;;;;;;;;;;;2.28;100.00;93089.97;1432737;39;20321;31
2021/03/05 03:38:38;;;;;;;;;;;;;;;2.31;100.00;93089.25;1305398;39;21109;31
2021/03/05 03:39:43;;;;;;;;;;;;;;;2.25;100.00;93093.34;1433206;39;20309;31
2021/03/05 03:40:49;;;;;;;;;;;;;;;2.27;100.00;93094.50;1430404;39;21061;31
2021/03/05 03:42:02;;;;;;;;;;;;;;;2.20;100.00;93091.81;1424893;39;20948;31
2021/03/05 03:44:24;;;;;;;;;;;;;;;2.08;100.00;93093.94;1430263;39;20202;31
2021/03/05 03:46:33;;;;;;;;;;;;;;;2.16;100.00;93090.25;1421389;39;21021;31
2021/03/05 03:47:37;;;;;;;;;;;;;;;2.22;100.00;93094.81;1407715;39;20221;31
2021/03/05 03:48:51;;;;;;;;;;;;;;;2.20;100.00;93091.81;1421484;39;20257;31
2021/03/05 03:50:05;;;;;;;;;;;;;;;2.21;100.00;93089.94;1429985;39;47001;31
2021/03/05 03:51:19;;;;;;;;;;;;;;;2.25;100.00;93096.00;1422655;39;20264;31
2021/03/05 03:52:33;;;;;;;;;;;;;;;2.21;100.00;93097.84;1366387;39;20202;31
2021/03/05 03:53:38;;;;;;;;;;;;;;;2.18;100.00;93088.75;1436942;39;21620;31
2021/03/05 03:57:06;;;;;;;;;;;;;;;2.13;100.00;93096.25;1443327;39;20237;31
2021/03/05 04:00:24;;;;;;;;;;;;;;;2.20;100.00;93096.31;1437815;39;22309;31
2021/03/05 04:01:28;;;;;;;;;;;;;;;2.19;100.00;93102.69;1422799;39;20497;31
2021/03/05 04:03:38;;;;;;;;;;;;;;;2.17;100.00;93097.78;1388316;39;20155;31
2021/03/05 04:07:06;;;;;;;;;;;;;;;2.26;100.00;93092.97;1313320;39;20233;31
2021/03/05 04:08:20;;;;;;;;;;;;;;;2.12;100.00;93097.38;1429575;39;21328;31
2021/03/05 04:09:34;;;;;;;;;;;;;;;2.10;100.00;93096.97;1428567;39;22393;31
2021/03/05 04:10:40;;;;;;;;;;;;;;;2.12;100.00;93092.84;1411006;39;20293;31
2021/03/05 04:13:51;;;;;;;;;;;;;;;2.19;100.00;93103.44;1443322;39;20178;31
2021/03/05 04:15:04;;;;;;;;;;;;;;;2.13;100.00;93102.28;1439152;39;20997;31
2021/03/05 04:16:11;;;;;;;;;;;;;;;2.13;100.00;93106.78;1419609;39;20194;31
2021/03/05 04:17:25;;;;;;;;;;;;;;;2.08;100.00;93101.84;1433101;39;20210;31
2021/03/05 04:18:39;;;;;;;;;;;;;;;2.03;100.00;93099.53;1425177;39;20199;31
2021/03/05 04:19:53;;;;;;;;;;;;;;;2.02;99.48;93104.06;1210374;39;20231;31
2021/03/05 04:20:59;;;;;;;;;;;;;;;2.05;100.00;93107.84;1426852;39;20327;31
2021/03/05 04:22:03;;;;;;;;;;;;;;;1.95;100.00;93106.62;1422922;39;20203;31
2021/03/05 04:23:08;;;;;;;;;;;;;;;1.94;100.00;93103.22;1359800;39;20227;31
2021/03/05 04:24:12;;;;;;;;;;;;;;;1.97;100.00;93102.47;1353279;39;20792;31
2021/03/05 04:25:26;;;;;;;;;;;;;;;1.99;100.00;93099.50;1424507;39;20404;31
2021/03/05 04:26:30;;;;;;;;;;;;;;;1.94;100.00;93102.47;1344492;39;21191;31
2021/03/05 04:27:44;;;;;;;;;;;;;;;1.89;100.00;93103.56;1423507;39;20265;31
2021/03/05 04:28:58;;;;;;;;;;;;;;;1.91;100.00;93111.84;1430069;39;20585;31
2021/03/05 04:30:12;;;;;;;;;;;;;;;1.84;100.00;93103.84;1427339;39;21119;31
2021/03/05 04:31:26;;;;;;;;;;;;;;;1.99;100.00;93108.16;1427482;39;20328;31
2021/03/05 04:32:41;;;;;;;;;;;;;;;1.91;100.00;93106.56;1414504;39;20208;31
2021/03/05 04:33:56;;;;;;;;;;;;;;;1.93;100.00;93116.75;1416283;39;20523;31
2021/03/05 04:35:10;;;;;;;;;;;;;;;1.97;100.00;93114.91;1433133;39;20609;31
2021/03/05 04:36:25;;;;;;;;;;;;;;;1.97;100.00;93114.91;1426657;39;21196;31
2021/03/05 04:37:29;;;;;;;;;;;;;;;1.93;100.00;93119.37;1420466;39;22773;31
2021/03/05 04:38:43;;;;;;;;;;;;;;;1.95;100.00;93117.91;1423754;39;22360;31
2021/03/05 04:39:57;;;;;;;;;;;;;;;1.99;100.00;93118.72;1430393;39;21167;31
2021/03/05 04:41:11;;;;;;;;;;;;;;;1.84;100.00;93116.28;1416108;39;21024;31
2021/03/05 04:42:13;;;;;;;;;;;;;;;1.94;100.00;93119.03;1428555;39;22772;31
2021/03/05 04:44:25;;;;;;;;;;;;;;;1.96;100.00;93114.16;1432680;39;20648;31
2021/03/05 04:46:49;;;;;;;;;;;;;;;1.97;100.00;93115.66;1445519;39;20281;31
2021/03/05 04:47:53;;;;;;;;;;;;;;;1.98;100.00;93122.47;1426752;39;20238;31
2021/03/05 04:48:57;;;;;;;;;;;;;;;1.98;100.00;93116.44;1352762;39;20172;31
2021/03/05 04:51:14;;;;;;;;;;;;;;;1.87;100.00;93113.69;1407333;40;20240;31
2021/03/05 04:52:29;;;;;;;;;;;;;;;1.87;100.00;93118.94;1424745;39;20282;31
2021/03/05 04:53:33;;;;;;;;;;;;;;;1.87;100.00;93115.56;1423259;39;20263;31
2021/03/05 04:54:47;;;;;;;;;;;;;;;2.01;100.00;93121.72;1430416;39;20242;31
2021/03/05 04:56:01;;;;;;;;;;;;;;;1.89;100.00;93115.94;1430292;39;20245;31
2021/03/05 04:58:27;;;;;;;;;;;;;;;1.83;100.00;93106.84;1426635;39;21667;31
2021/03/05 05:00:35;;;;;;;;;;;;;;;1.79;100.00;93120.00;1427376;39;20257;31
2021/03/05 05:03:00;;;;;;;;;;;;;;;1.75;100.00;93113.91;1434033;39;21586;31
2021/03/05 05:05:42;;;;;;;;;;;;;;;1.78;100.00;93121.13;1424558;39;21129;31
2021/03/05 05:06:56;;;;;;;;;;;;;;;1.84;100.00;93119.66;1424080;39;22580;31
2021/03/05 05:08:10;;;;;;;;;;;;;;;1.97;100.00;93123.56;1423125;39;21171;31
2021/03/05 05:09:24;;;;;;;;;;;;;;;1.87;100.00;93126.09;1418696;39;21107;31
2021/03/05 05:10:28;;;;;;;;;;;;;;;1.82;100.00;93121.91;1425296;39;20543;31
2021/03/05 05:11:42;;;;;;;;;;;;;;;1.86;100.00;93124.59;1422231;39;20207;31
2021/03/05 05:12:56;;;;;;;;;;;;;;;1.76;100.00;93129.38;1427804;39;21197;31
2021/03/05 05:14:10;;;;;;;;;;;;;;;1.78;100.00;93115.84;1426296;39;20219;31
2021/03/05 05:15:24;;;;;;;;;;;;;;;1.92;100.00;93118.63;1414395;39;21663;31
2021/03/05 05:16:38;;;;;;;;;;;;;;;1.81;100.00;93111.75;1420027;39;20215;31
2021/03/05 05:17:53;;;;;;;;;;;;;;;1.78;100.00;93121.13;1419080;39;21083;31
2021/03/05 05:19:07;;;;;;;;;;;;;;;1.69;100.00;93110.09;1412526;40;20255;31
2021/03/05 05:20:21;;;;;;;;;;;;;;;1.81;100.00;93117.00;1438751;39;20921;31
2021/03/05 05:21:37;;;;;;;;;;;;;;;1.82;100.00;93121.16;1430326;39;21756;31
2021/03/05 05:22:52;;;;;;;;;;;;;;;1.92;100.00;93115.25;1432006;39;21245;31
2021/03/05 05:24:07;;;;;;;;;;;;;;;1.82;100.00;93126.44;1427325;39;20291;31
2021/03/05 05:25:22;;;;;;;;;;;;;;;1.78;100.00;93123.75;1435435;39;20268;31
2021/03/05 05:26:36;;;;;;;;;;;;;;;1.73;100.00;93124.06;1413489;39;22417;31
2021/03/05 05:27:50;;;;;;;;;;;;;;;1.89;100.00;93124.63;1424108;39;20246;31
2021/03/05 05:29:04;;;;;;;;;;;;;;;1.83;100.00;93128.69;1425236;39;20211;31
2021/03/05 05:31:38;;;;;;;;;;;;;;;1.72;100.00;93120.69;1425724;39;20256;31
2021/03/05 05:32:52;;;;;;;;;;;;;;;1.82;100.00;93124.56;1419976;39;20774;31
2021/03/05 05:34:06;;;;;;;;;;;;;;;1.87;100.00;93128.75;1421148;39;21143;31
2021/03/05 05:35:20;;;;;;;;;;;;;;;1.85;100.00;93128.34;1423568;39;20229;31
2021/03/05 05:36:34;;;;;;;;;;;;;;;1.92;100.00;93133.69;1422146;39;21580;31
2021/03/05 05:37:48;;;;;;;;;;;;;;;1.85;100.00;93133.63;1414737;39;21139;31
2021/03/05 05:39:02;;;;;;;;;;;;;;;1.83;100.00;93122.66;1422403;39;21228;31
2021/03/05 05:40:16;;;;;;;;;;;;;;;1.83;100.00;93131.34;1425005;39;20207;31
2021/03/05 05:41:30;;;;;;;;;;;;;;;1.73;100.00;93126.72;1433183;39;21120;31
2021/03/05 05:42:44;;;;;;;;;;;;;;;1.68;100.00;93127.03;1427422;39;20206;31
2021/03/05 05:43:58;;;;;;;;;;;;;;;1.67;100.00;93128.91;1431735;39;20199;31
2021/03/05 05:45:03;;;;;;;;;;;;;;;1.69;100.00;93129.28;1427160;39;22312;31
2021/03/05 05:47:20;;;;;;;;;;;;;;;1.68;100.00;93130.41;1444125;39;20285;31
2021/03/05 05:48:34;;;;;;;;;;;;;;;1.62;100.00;93131.84;1426638;39;20207;31
2021/03/05 05:49:48;;;;;;;;;;;;;;;1.61;100.00;93122.41;1423923;39;20227;31
2021/03/05 05:51:04;;;;;;;;;;;;;;;1.63;100.00;93124.72;1420376;39;20229;31
2021/03/05 05:52:19;;;;;;;;;;;;;;;1.65;100.00;93125.09;1423304;39;20230;31
2021/03/05 05:53:36;;;;;;;;;;;;;;;1.71;100.00;93118.37;1427408;39;20199;31
2021/03/05 05:54:50;;;;;;;;;;;;;;;1.76;100.00;93115.47;1420115;39;20235;31
2021/03/05 05:56:05;;;;;;;;;;;;;;;1.75;100.00;93119.19;1424463;39;21156;31
2021/03/05 05:57:19;;;;;;;;;;;;;;;1.70;100.00;93120.28;1422655;39;20243;31
2021/03/05 05:58:34;;;;;;;;;;;;;;;1.65;100.00;93117.19;1419022;39;20235;31
2021/03/05 05:59:49;;;;;;;;;;;;;;;1.77;100.00;93120.34;1425576;39;20331;31
2021/03/05 06:01:03;;;;;;;;;;;;;;;1.64;100.00;93124.34;1418658;39;20243;31
2021/03/05 06:03:47;;;;;;;;;;;;;;;1.64;100.00;93123.59;1422201;39;20596;31
2021/03/05 06:05:01;;;;;;;;;;;;;;;1.65;100.00;93127.75;1426996;39;20223;31
2021/03/05 06:06:15;;;;;;;;;;;;;;;1.70;100.00;93124.78;1428674;39;21155;31
2021/03/05 06:07:31;;;;;;;;;;;;;;;1.76;100.00;93126.75;1433717;39;20214;31
2021/03/05 06:08:34;;;;;;;;;;;;;;;1.75;100.00;93127.84;1423441;39;21140;31
2021/03/05 06:09:48;;;;;;;;;;;;;;;1.70;100.00;93122.91;1425147;39;20323;31
2021/03/05 06:11:02;;;;;;;;;;;;;;;1.68;100.00;93119.88;1428713;39;20237;31
2021/03/05 06:12:16;;;;;;;;;;;;;;;1.73;100.00;93129.34;1425132;39;20207;31
2021/03/05 06:13:30;;;;;;;;;;;;;;;1.70;100.00;93130.06;1419363;39;21135;31
2021/03/05 06:14:44;;;;;;;;;;;;;;;1.74;100.00;93131.59;1419658;39;20298;31
2021/03/05 06:15:58;;;;;;;;;;;;;;;1.69;100.00;93136.44;1424699;39;20230;31
2021/03/05 06:17:02;;;;;;;;;;;;;;;1.76;100.00;93134.66;1424086;39;22379;31
2021/03/05 06:19:18;;;;;;;;;;;;;;;1.68;100.00;93119.88;1442240;39;20202;31
2021/03/05 06:22:37;;;;;;;;;;;;;;;1.81;100.00;93138.09;1312336;39;20245;31
2021/03/05 06:23:52;;;;;;;;;;;;;;;1.75;100.00;93140.25;1436064;39;20206;31
2021/03/05 06:25:06;;;;;;;;;;;;;;;1.67;100.00;93139.44;1425833;39;20215;31
2021/03/05 06:26:20;;;;;;;;;;;;;;;1.76;100.00;93139.19;1421519;39;21200;31
2021/03/05 06:27:34;;;;;;;;;;;;;;;1.72;100.00;93139.13;1431407;39;20509;31
2021/03/05 06:28:50;;;;;;;;;;;;;;;1.67;100.00;93141.31;1432104;39;20300;31
2021/03/05 06:29:54;;;;;;;;;;;;;;;1.74;99.13;93144.03;1432714;39;20246;31
2021/03/05 06:31:11;;;;;;;;;;;;;;;1.68;99.74;93146.22;1413593;39;21147;31
2021/03/05 06:32:16;;;;;;;;;;;;;;;1.42;97.68;93151.53;1434285;39;21122;31
2021/03/05 06:33:21;;;;;;;;;;;;;;;1.36;98.92;93152.94;1428274;39;21154;31
2021/03/05 06:36:44;;;;;;;;;;;;;;;1.51;97.62;93155.41;1443423;39;20240;31
2021/03/05 06:37:58;;;;;;;;;;;;;;;1.38;97.96;93162.03;1435096;39;21078;31
2021/03/05 06:39:02;;;;;;;;;;;;;;;1.35;99.75;93157.47;1430642;39;22796;31
2021/03/05 06:40:16;;;;;;;;;;;;;;;1.31;98.69;93167.19;1415409;39;20251;31
2021/03/05 06:41:30;;;;;;;;;;;;;;;1.09;98.37;93173.25;1415290;39;20247;31
2021/03/05 06:42:44;;;;;;;;;;;;;;;1.09;100.00;93174.03;1424418;39;20221;31
2021/03/05 06:43:58;;;;;;;;;;;;;;;1.20;100.00;93174.19;1422420;39;20224;31
2021/03/05 06:45:12;;;;;;;;;;;;;;;1.11;99.97;93182.34;1425857;39;21137;31
2021/03/05 06:46:26;;;;;;;;;;;;;;;0.96;99.98;93183.22;1415505;39;21151;31
2021/03/05 06:47:40;;;;;;;;;;;;;;;0.85;99.73;93180.44;1436789;39;20328;31
2021/03/05 06:48:51;;;;;;;;;;;;;;;0.92;99.64;93177.94;1436400;39;22390;31
2021/03/05 06:50:05;;;;;;;;;;;;;;;0.97;100.00;93185.53;1423021;39;20203;31
2021/03/05 06:51:19;;;;;;;;;;;;;;;0.98;100.00;93189.66;1419562;39;21169;31
2021/03/05 06:52:34;;;;;;;;;;;;;;;1.02;100.00;93189.72;1432691;39;20228;31
2021/03/05 06:53:50;;;;;;;;;;;;;;;1.07;99.41;93194.69;1429140;39;21602;31
2021/03/05 06:55:04;;;;;;;;;;;;;;;1.08;100.00;93203.34;1424213;39;20273;31
2021/03/05 06:56:18;;;;;;;;;;;;;;;0.97;99.30;93200.56;1426215;39;20243;31
2021/03/05 06:57:32;;;;;;;;;;;;;;;0.99;100.00;93199.06;1413404;39;20247;31
2021/03/05 06:58:36;;;;;;;;;;;;;;;1.04;98.96;93203.28;1423142;39;22309;31
2021/03/05 06:59:50;;;;;;;;;;;;;;;1.10;98.60;93203.72;1414079;39;20212;31
2021/03/05 07:01:04;;;;;;;;;;;;;;;1.08;97.86;93211.22;1431681;39;21093;31
2021/03/05 07:02:18;;;;;;;;;;;;;;;0.99;98.82;93209.59;1431205;39;20206;31
2021/03/05 07:03:32;;;;;;;;;;;;;;;0.80;98.16;93212.31;1421456;39;22477;31
2021/03/05 07:04:49;;;;;;;;;;;;;;;0.72;98.22;93210.66;1424118;39;21807;31
2021/03/05 07:07:25;;;;;;;;;;;;;;;0.92;99.24;93220.03;1434215;39;21170;31
2021/03/05 07:08:42;;;;;;;;;;;;;;;0.81;98.88;93213.81;1422762;39;22453;31
2021/03/05 07:12:20;;;;;;;;;;;;;;;0.70;98.91;93223.41;1433999;39;20222;31
2021/03/05 07:13:34;;;;;;;;;;;;;;;0.85;98.61;93222.53;1425785;39;21132;31
2021/03/05 07:14:48;;;;;;;;;;;;;;;0.69;98.06;93227.91;1425644;39;21147;31
2021/03/05 07:15:56;;;;;;;;;;;;;;;0.75;99.73;93234.41;1426982;39;20222;31
2021/03/05 07:19:21;;;;;;;;;;;;;;;0.66;98.66;93233.88;1447209;39;22269;31
2021/03/05 07:20:25;;;;;;;;;;;;;;;0.69;99.57;93233.16;1426136;39;20308;31
2021/03/05 07:22:38;;;;;;;;;;;;;;;0.55;99.52;93234.78;1421690;39;20250;31
2021/03/05 07:23:52;;;;;;;;;;;;;;;0.56;99.49;93237.06;1433008;39;20249;31
2021/03/05 07:25:06;;;;;;;;;;;;;;;0.61;100.00;93238.66;1424706;39;20237;31
2021/03/05 07:26:20;;;;;;;;;;;;;;;0.73;99.35;93241.13;1426492;39;21309;31
2021/03/05 07:27:44;;;;;;;;;;;;;;;0.69;99.70;93242.94;1426882;39;20259;31
2021/03/05 07:28:58;;;;;;;;;;;;;;;0.59;99.89;93243.50;1401750;40;21179;31
2021/03/05 07:30:12;;;;;;;;;;;;;;;0.54;99.14;93246.44;1420386;39;21381;31
2021/03/05 07:31:26;;;;;;;;;;;;;;;0.49;100.00;93253.50;1424875;39;21181;31
2021/03/05 07:32:40;;;;;;;;;;;;;;;0.64;100.00;93248.47;1440205;39;21120;31
2021/03/05 07:33:54;;;;;;;;;;;;;;;0.82;99.98;93254.81;1419409;39;20219;31
2021/03/05 07:35:08;;;;;;;;;;;;;;;0.82;98.60;93249.53;1421582;39;21659;31
2021/03/05 07:36:22;;;;;;;;;;;;;;;0.78;99.64;93255.84;1430844;39;21614;31
2021/03/05 07:37:36;;;;;;;;;;;;;;;0.87;99.47;93259.78;1441607;39;21161;31
2021/03/05 07:38:43;;;;;;;;;;;;;;;0.63;99.38;93258.25;1445615;39;20211;31
2021/03/05 07:39:57;;;;;;;;;;;;;;;0.85;99.07;93262.00;1434834;39;21191;31